Time;durP1;ratioP1;P1;durP2;ratioP2;P2;SDS_P1;SDS_P2;PMS_P1;PMS_P2;Temp;Humidity;BMP_temperature;BMP_pressure;BME280_temperature;BME280_humidity;BME280_pressure;Samples;Min_cycle;Max_cycle;Signal;HPM_P1;HPM_P2
2021/03/05 00:01:36;;;;;;;35.97;13.33;;;;;;;;;;6279652;22;20209;-77
2021/03/05 00:04:41;;;;;;;36.10;14.43;;;;;;;;;;6278795;22;20177;-77
2021/03/05 00:07:46;;;;;;;35.80;14.40;;;;;;;;;;6279383;22;20172;-78
2021/03/05 00:10:52;;;;;;;30.17;13.70;;;;;;;;;;6260188;22;20205;-78
2021/03/05 00:13:56;;;;;;;28.20;14.07;;;;;;;;;;6260361;22;20170;-78
2021/03/05 00:17:01;;;;;;;36.60;15.07;;;;;;;;;;6261322;22;20250;-79
2021/03/05 00:20:06;;;;;;;35.90;15.63;;;;;;;;;;6262788;22;20173;-79
2021/03/05 00:23:12;;;;;;;37.27;14.73;;;;;;;;;;6260362;22;20707;-79
2021/03/05 00:26:16;;;;;;;32.57;14.40;;;;;;;;;;6261644;22;20210;-80
2021/03/05 00:29:21;;;;;;;37.17;14.67;;;;;;;;;;6263235;22;20953;-79
2021/03/05 00:32:25;;;;;;;34.67;14.10;;;;;;;;;;6263523;22;20181;-80
2021/03/05 00:35:29;;;;;;;35.80;15.23;;;;;;;;;;6281054;22;20170;-79
2021/03/05 00:38:35;;;;;;;32.97;14.50;;;;;;;;;;6281399;22;20630;-80
2021/03/05 00:41:39;;;;;;;36.87;15.13;;;;;;;;;;6281228;22;20205;-79
2021/03/05 00:44:46;;;;;;;34.20;14.97;;;;;;;;;;6262494;22;20174;-80
2021/03/05 00:47:50;;;;;;;37.03;15.40;;;;;;;;;;6262451;22;20174;-79
2021/03/05 00:50:56;;;;;;;36.53;15.43;;;;;;;;;;6262370;22;20253;-79
2021/03/05 00:54:02;;;;;;;35.10;14.97;;;;;;;;;;6262065;22;20198;-80
2021/03/05 00:57:07;;;;;;;34.97;16.33;;;;;;;;;;6261997;22;20560;-80
2021/03/05 01:00:12;;;;;;;35.37;14.70;;;;;;;;;;6262154;22;20269;-80
2021/03/05 01:03:17;;;;;;;28.00;12.63;;;;;;;;;;6262888;22;20240;-79
2021/03/05 01:06:22;;;;;;;26.07;11.40;;;;;;;;;;6263748;22;20170;-79
2021/03/05 01:09:32;;;;;;;30.97;11.37;;;;;;;;;;6262164;22;20284;-80
2021/03/05 01:12:37;;;;;;;31.70;10.93;;;;;;;;;;6264557;22;20639;-77
2021/03/05 01:15:42;;;;;;;22.50;9.27;;;;;;;;;;6266286;22;20221;-80
2021/03/05 01:18:46;;;;;;;21.90;8.20;;;;;;;;;;6282419;22;20201;-80
2021/03/05 01:21:51;;;;;;;19.17;7.23;;;;;;;;;;6280606;22;20209;-79
2021/03/05 01:24:56;;;;;;;19.53;7.37;;;;;;;;;;6262198;22;20516;-80
2021/03/05 01:28:01;;;;;;;20.60;7.00;;;;;;;;;;6263661;22;20182;-78
2021/03/05 01:31:06;;;;;;;20.63;7.00;;;;;;;;;;6292477;22;20682;-79
2021/03/05 01:34:10;;;;;;;21.07;7.07;;;;;;;;;;6284322;22;20173;-80
2021/03/05 01:37:15;;;;;;;12.87;6.33;;;;;;;;;;6288343;22;20173;-80
2021/03/05 01:40:24;;;;;;;14.63;5.80;;;;;;;;;;6285257;22;20256;-79
2021/03/05 01:43:29;;;;;;;21.93;7.13;;;;;;;;;;6272136;22;20177;-79
2021/03/05 01:46:34;;;;;;;15.07;6.43;;;;;;;;;;6282563;22;20225;-80
2021/03/05 01:49:39;;;;;;;16.33;6.20;;;;;;;;;;6280702;22;20201;-80
2021/03/05 01:52:45;;;;;;;18.27;6.17;;;;;;;;;;6261126;22;20200;-80
2021/03/05 01:55:50;;;;;;;17.70;5.53;;;;;;;;;;6280813;22;20562;-80
2021/03/05 01:58:55;;;;;;;13.97;5.30;;;;;;;;;;6261546;22;20278;-80
2021/03/05 02:02:00;;;;;;;13.27;6.03;;;;;;;;;;6261579;22;20300;-80
2021/03/05 02:05:05;;;;;;;16.77;6.27;;;;;;;;;;6263045;22;20237;-79
2021/03/05 02:08:09;;;;;;;17.53;6.23;;;;;;;;;;6303873;22;20206;-79
2021/03/05 02:11:49;;;;;;;13.80;6.63;;;;;;;;;;6285863;22;20189;-79
2021/03/05 02:14:55;;;;;;;15.60;6.60;;;;;;;;;;6285443;22;20149;-78
2021/03/05 02:18:05;;;;;;;20.83;6.73;;;;;;;;;;6284791;22;20219;-78
2021/03/05 02:21:25;;;;;;;16.67;6.97;;;;;;;;;;6281798;22;20237;-78
2021/03/05 02:24:44;;;;;;;14.70;6.17;;;;;;;;;;6281694;22;20182;-79
2021/03/05 02:28:04;;;;;;;17.87;6.73;;;;;;;;;;6270920;22;20261;-78
2021/03/05 02:31:19;;;;;;;19.60;7.23;;;;;;;;;;6264737;22;20206;-79
2021/03/05 02:34:25;;;;;;;18.33;7.10;;;;;;;;;;6263573;22;20174;-78
2021/03/05 02:37:31;;;;;;;16.47;7.23;;;;;;;;;;6266281;22;20170;-80
2021/03/05 02:40:36;;;;;;;18.30;7.63;;;;;;;;;;6265738;22;20718;-80
2021/03/05 02:43:42;;;;;;;14.87;7.80;;;;;;;;;;6264776;22;20177;-77
2021/03/05 02:46:47;;;;;;;17.00;7.33;;;;;;;;;;6282725;22;20193;-79
2021/03/05 02:49:52;;;;;;;15.37;7.17;;;;;;;;;;6263929;22;20173;-79
2021/03/05 02:52:58;;;;;;;21.80;8.90;;;;;;;;;;6282345;22;20173;-79
2021/03/05 02:56:05;;;;;;;16.87;7.03;;;;;;;;;;6283121;22;20170;-80
2021/03/05 02:59:12;;;;;;;14.97;7.30;;;;;;;;;;6263097;22;20269;-79
2021/03/05 03:02:20;;;;;;;15.00;7.63;;;;;;;;;;6282736;22;20174;-80
2021/03/05 03:05:27;;;;;;;17.53;7.93;;;;;;;;;;6263194;22;20181;-79
2021/03/05 03:08:32;;;;;;;14.23;7.27;;;;;;;;;;6263396;22;20182;-79
2021/03/05 03:11:39;;;;;;;18.87;7.90;;;;;;;;;;6282485;22;20279;-79
2021/03/05 03:14:45;;;;;;;15.83;7.87;;;;;;;;;;6263722;22;20645;-79
2021/03/05 03:17:51;;;;;;;16.97;7.83;;;;;;;;;;6264065;22;20165;-79
2021/03/05 03:20:57;;;;;;;16.90;8.47;;;;;;;;;;6263576;22;20201;-79
2021/03/05 03:24:01;;;;;;;18.23;8.10;;;;;;;;;;6263751;22;20174;-80
2021/03/05 03:27:05;;;;;;;18.37;7.00;;;;;;;;;;6267558;22;20197;-80
2021/03/05 03:30:10;;;;;;;15.33;6.80;;;;;;;;;;6264187;22;20197;-80
2021/03/05 03:33:16;;;;;;;14.80;7.00;;;;;;;;;;6264807;22;20173;-79
2021/03/05 03:36:21;;;;;;;14.50;7.37;;;;;;;;;;6283050;22;20193;-80
2021/03/05 03:39:26;;;;;;;18.23;6.93;;;;;;;;;;6282406;22;20202;-80
2021/03/05 03:42:31;;;;;;;12.13;6.70;;;;;;;;;;6272501;22;20165;-79
2021/03/05 03:45:36;;;;;;;12.53;6.70;;;;;;;;;;6283200;22;20252;-80
2021/03/05 03:48:45;;;;;;;13.00;6.97;;;;;;;;;;6280064;22;20196;-77
2021/03/05 03:51:54;;;;;;;14.33;7.37;;;;;;;;;;6281140;22;20254;-78
2021/03/05 03:54:59;;;;;;;15.53;7.83;;;;;;;;;;6287898;22;20170;-79
2021/03/05 03:58:04;;;;;;;15.00;7.67;;;;;;;;;;6290085;22;20170;-80
2021/03/05 04:01:10;;;;;;;15.93;8.20;;;;;;;;;;6293603;22;20761;-80
2021/03/05 04:04:17;;;;;;;16.30;7.80;;;;;;;;;;6267625;22;20189;-80
2021/03/05 04:07:21;;;;;;;14.80;7.40;;;;;;;;;;6272161;22;20189;-77
2021/03/05 04:10:26;;;;;;;14.53;6.50;;;;;;;;;;6290140;22;20272;-80
2021/03/05 04:13:31;;;;;;;15.10;7.00;;;;;;;;;;6293647;22;20201;-78
2021/03/05 04:16:36;;;;;;;16.73;8.23;;;;;;;;;;6277614;22;20226;-78
2021/03/05 04:19:42;;;;;;;14.40;7.13;;;;;;;;;;6277555;22;20201;-78
2021/03/05 04:22:47;;;;;;;16.03;7.23;;;;;;;;;;6276911;22;20178;-78
2021/03/05 04:25:51;;;;;;;12.30;6.87;;;;;;;;;;6265698;22;20169;-79
2021/03/05 04:28:56;;;;;;;14.07;7.43;;;;;;;;;;6258621;22;20514;-79
2021/03/05 04:32:00;;;;;;;13.27;6.97;;;;;;;;;;6262235;22;20209;-79
2021/03/05 04:35:06;;;;;;;12.47;6.30;;;;;;;;;;6262709;22;20220;-79
2021/03/05 04:38:11;;;;;;;14.80;6.77;;;;;;;;;;6262955;22;20224;-79
2021/03/05 04:41:15;;;;;;;10.93;6.17;;;;;;;;;;6262504;22;20682;-79
2021/03/05 04:44:19;;;;;;;10.27;5.93;;;;;;;;;;6281611;22;20167;-79
2021/03/05 04:47:24;;;;;;;10.73;5.77;;;;;;;;;;6262081;22;20201;-79
2021/03/05 04:50:30;;;;;;;11.20;6.00;;;;;;;;;;6262989;22;20243;-79
2021/03/05 04:53:34;;;;;;;10.37;5.80;;;;;;;;;;6262215;22;20220;-78
2021/03/05 04:56:39;;;;;;;11.87;5.87;;;;;;;;;;6267600;22;20188;-78
2021/03/05 04:59:43;;;;;;;9.83;5.07;;;;;;;;;;6283716;22;20192;-80
2021/03/05 05:02:47;;;;;;;8.57;4.90;;;;;;;;;;6263552;22;20225;-79
2021/03/05 05:05:52;;;;;;;8.73;4.73;;;;;;;;;;6263051;22;20174;-79
2021/03/05 05:08:57;;;;;;;9.13;5.00;;;;;;;;;;6282009;22;20181;-78
2021/03/05 05:12:02;;;;;;;10.40;5.90;;;;;;;;;;6281811;22;20196;-77
2021/03/05 05:15:07;;;;;;;9.50;5.47;;;;;;;;;;6281030;22;20165;-77
2021/03/05 05:18:11;;;;;;;8.30;5.13;;;;;;;;;;6299757;22;20265;-77
2021/03/05 05:21:17;;;;;;;11.80;5.03;;;;;;;;;;6300202;22;20224;-77
2021/03/05 05:24:21;;;;;;;5.80;3.60;;;;;;;;;;6280080;22;20169;-78
2021/03/05 05:27:26;;;;;;;6.83;2.40;;;;;;;;;;6279636;22;20227;-78
2021/03/05 05:30:32;;;;;;;5.77;1.93;;;;;;;;;;6266643;22;20229;-79
2021/03/05 05:33:36;;;;;;;2.67;1.43;;;;;;;;;;6262331;22;20216;-79
2021/03/05 05:36:42;;;;;;;2.83;1.70;;;;;;;;;;6263016;22;20259;-79
2021/03/05 05:39:47;;;;;;;4.43;1.60;;;;;;;;;;6276895;22;20193;-78
2021/03/05 05:42:52;;;;;;;2.37;1.17;;;;;;;;;;6261407;22;20201;-80
2021/03/05 05:45:56;;;;;;;4.10;1.63;;;;;;;;;;6257849;22;20213;-79
2021/03/05 05:49:01;;;;;;;1.80;1.10;;;;;;;;;;6279490;22;20242;-80
2021/03/05 05:52:07;;;;;;;2.13;1.13;;;;;;;;;;6282865;22;20208;-77
2021/03/05 05:55:12;;;;;;;3.17;1.00;;;;;;;;;;6267025;22;20178;-79
2021/03/05 05:58:17;;;;;;;3.67;0.80;;;;;;;;;;6264856;22;20170;-79
2021/03/05 06:01:22;;;;;;;3.37;0.80;;;;;;;;;;6277037;22;20201;-78
2021/03/05 06:04:27;;;;;;;2.33;1.00;;;;;;;;;;6278931;22;20188;-78
2021/03/05 06:07:33;;;;;;;2.23;0.80;;;;;;;;;;6292396;22;20244;-79
2021/03/05 06:10:38;;;;;;;3.80;1.10;;;;;;;;;;6273510;22;20205;-77
2021/03/05 06:13:42;;;;;;;5.90;1.43;;;;;;;;;;6271938;22;20193;-78
2021/03/05 06:16:56;;;;;;;1.37;0.90;;;;;;;;;;6276344;22;20181;-78
2021/03/05 06:20:01;;;;;;;6.27;2.13;;;;;;;;;;6271360;22;20236;-77
2021/03/05 06:23:22;;;;;;;2.30;0.80;;;;;;;;;;6263088;22;20777;-78
2021/03/05 06:26:27;;;;;;;1.20;0.80;;;;;;;;;;6280237;22;20549;-77
2021/03/05 06:29:40;;;;;;;2.33;0.80;;;;;;;;;;6279513;22;20587;-77
2021/03/05 06:32:45;;;;;;;1.43;0.77;;;;;;;;;;6278611;22;20227;-77
2021/03/05 06:35:49;;;;;;;1.20;0.80;;;;;;;;;;6270468;22;20282;-76
2021/03/05 06:38:55;;;;;;;1.90;1.00;;;;;;;;;;6282472;22;21055;-78
2021/03/05 06:42:06;;;;;;;4.30;1.00;;;;;;;;;;6261055;22;20324;-78
2021/03/05 06:45:11;;;;;;;1.60;0.70;;;;;;;;;;6265213;22;20174;-78
2021/03/05 06:48:16;;;;;;;1.80;1.10;;;;;;;;;;6278887;22;20181;-78
2021/03/05 06:51:21;;;;;;;2.37;1.00;;;;;;;;;;6260054;22;20201;-78
2021/03/05 06:54:30;;;;;;;2.13;0.90;;;;;;;;;;6281431;22;20185;-76
2021/03/05 06:57:34;;;;;;;2.37;1.10;;;;;;;;;;6262547;22;20177;-78
2021/03/05 07:00:39;;;;;;;1.60;1.00;;;;;;;;;;6284557;22;20271;-76
2021/03/05 07:03:43;;;;;;;2.60;1.13;;;;;;;;;;6282084;22;20684;-78
2021/03/05 07:06:56;;;;;;;2.20;1.20;;;;;;;;;;6280981;22;20185;-78
2021/03/05 07:10:01;;;;;;;3.17;1.50;;;;;;;;;;6257660;22;20814;-77
2021/03/05 07:13:06;;;;;;;28.77;14.63;;;;;;;;;;6277211;22;20165;-77
2021/03/05 07:16:10;;;;;;;6.03;2.47;;;;;;;;;;6258050;22;20169;-77
2021/03/05 07:19:16;;;;;;;3.73;1.70;;;;;;;;;;6283955;22;20197;-79
2021/03/05 07:22:20;;;;;;;3.60;1.80;;;;;;;;;;6283430;22;20193;-78
2021/03/05 07:25:27;;;;;;;5.00;2.13;;;;;;;;;;6280583;22;20177;-78
2021/03/05 07:28:34;;;;;;;7.70;3.47;;;;;;;;;;6282306;22;20170;-79
2021/03/05 07:31:38;;;;;;;60.07;23.53;;;;;;;;;;6261854;22;20201;-78
2021/03/05 07:34:47;;;;;;;45.10;12.80;;;;;;;;;;6258298;22;20193;-77
2021/03/05 07:37:54;;;;;;;17.33;5.80;;;;;;;;;;6258407;22;20174;-77
2021/03/05 07:41:02;;;;;;;9.90;3.30;;;;;;;;;;6276652;22;20248;-76
2021/03/05 07:44:07;;;;;;;21.27;7.33;;;;;;;;;;6258117;22;20220;-76
2021/03/05 07:47:12;;;;;;;9.37;4.67;;;;;;;;;;6257730;22;20247;-77
2021/03/05 07:50:17;;;;;;;3.23;2.00;;;;;;;;;;6278178;22;20240;-78
2021/03/05 07:53:21;;;;;;;5.67;2.07;;;;;;;;;;6278097;22;20619;-77
2021/03/05 07:56:39;;;;;;;5.50;3.43;;;;;;;;;;6276636;22;20201;-77
2021/03/05 07:59:46;;;;;;;4.27;2.33;;;;;;;;;;6278873;22;20235;-76
2021/03/05 08:02:52;;;;;;;6.30;2.20;;;;;;;;;;6259655;22;20233;-76
2021/03/05 08:05:59;;;;;;;6.77;2.50;;;;;;;;;;6259121;22;20562;-77
2021/03/05 08:09:07;;;;;;;53.97;25.10;;;;;;;;;;6261676;22;20216;-77
2021/03/05 08:12:31;;;;;;;5.77;2.70;;;;;;;;;;6276075;22;20252;-76
2021/03/05 08:15:37;;;;;;;7.37;2.67;;;;;;;;;;6257575;22;20288;-75
2021/03/05 08:18:41;;;;;;;7.37;3.13;;;;;;;;;;6275518;22;20173;-76
2021/03/05 08:22:01;;;;;;;8.67;3.03;;;;;;;;;;6274901;22;20683;-76
2021/03/05 08:25:21;;;;;;;8.87;4.30;;;;;;;;;;6257432;22;20174;-77
2021/03/05 08:28:36;;;;;;;6.77;3.40;;;;;;;;;;6262311;22;20221;-78
2021/03/05 08:31:43;;;;;;;9.67;3.67;;;;;;;;;;6275703;22;20286;-76
2021/03/05 08:34:47;;;;;;;8.57;3.13;;;;;;;;;;6257047;22;20220;-77
2021/03/05 08:38:00;;;;;;;6.00;2.87;;;;;;;;;;6256877;22;20170;-77
2021/03/05 08:41:06;;;;;;;12.47;5.23;;;;;;;;;;6275287;22;20549;-77
2021/03/05 08:44:14;;;;;;;11.03;5.37;;;;;;;;;;6257370;22;20169;-77
2021/03/05 08:47:19;;;;;;;13.97;5.57;;;;;;;;;;6276003;22;20595;-77
2021/03/05 08:50:29;;;;;;;10.50;5.00;;;;;;;;;;6257637;22;20202;-76
2021/03/05 08:53:38;;;;;;;11.53;4.93;;;;;;;;;;6275685;22;20212;-76
2021/03/05 08:56:42;;;;;;;9.10;4.90;;;;;;;;;;6276951;22;20181;-76
2021/03/05 08:59:51;;;;;;;13.90;5.57;;;;;;;;;;6289198;22;20630;-76
2021/03/05 09:03:04;;;;;;;9.93;4.67;;;;;;;;;;6282207;22;20169;-77
2021/03/05 09:06:13;;;;;;;9.30;4.57;;;;;;;;;;6277803;22;20216;-77
2021/03/05 09:09:19;;;;;;;12.33;5.07;;;;;;;;;;6292692;22;20228;-89
2021/03/05 09:12:27;;;;;;;13.13;4.83;;;;;;;;;;6298440;22;20169;-88
2021/03/05 09:15:39;;;;;;;9.23;4.57;;;;;;;;;;6297464;22;20245;-88
2021/03/05 09:18:48;;;;;;;10.50;4.63;;;;;;;;;;6297256;22;20207;-90
2021/03/05 09:22:03;;;;;;;11.40;4.80;;;;;;;;;;6297363;22;20237;-89
2021/03/05 09:25:10;;;;;;;11.07;4.83;;;;;;;;;;6296881;22;20176;-88
2021/03/05 09:28:14;;;;;;;9.60;4.47;;;;;;;;;;6298940;22;20185;-89
2021/03/05 09:31:25;;;;;;;7.33;3.83;;;;;;;;;;6299168;22;20164;-87
2021/03/05 09:34:30;;;;;;;7.27;3.63;;;;;;;;;;6299647;22;20168;-90
2021/03/05 09:37:36;;;;;;;8.43;4.13;;;;;;;;;;6300905;22;20188;-87
2021/03/05 09:40:41;;;;;;;9.03;3.40;;;;;;;;;;6301570;22;20231;-88
2021/03/05 09:43:46;;;;;;;11.90;5.90;;;;;;;;;;6301942;22;20164;-87
2021/03/05 14:17:36;;;;;;;9.33;4.83;;;;;;;;;;6199955;22;769140;-91
2021/03/05 14:20:41;;;;;;;4.70;2.50;;;;;;;;;;6208714;23;20234;-90
2021/03/05 14:23:46;;;;;;;6.43;2.90;;;;;;;;;;6206717;23;20204;-89
2021/03/05 14:26:51;;;;;;;5.10;2.30;;;;;;;;;;6209036;23;20195;-89
2021/03/05 14:29:55;;;;;;;5.83;2.90;;;;;;;;;;6209484;23;20167;-89
2021/03/05 14:33:01;;;;;;;5.00;2.60;;;;;;;;;;6209904;23;20187;-87
2021/03/05 14:36:07;;;;;;;7.60;3.37;;;;;;;;;;6210025;23;20234;-89
2021/03/05 14:39:12;;;;;;;11.43;4.10;;;;;;;;;;6211219;23;20171;-90
2021/03/05 14:42:17;;;;;;;7.73;2.60;;;;;;;;;;6213325;23;20240;-88
2021/03/05 14:45:21;;;;;;;7.57;3.27;;;;;;;;;;6211371;23;20194;-89
2021/03/05 14:48:27;;;;;;;15.17;3.47;;;;;;;;;;6212132;23;20246;-89
2021/03/05 14:51:31;;;;;;;5.30;3.13;;;;;;;;;;6211459;23;20230;-89
2021/03/05 14:54:36;;;;;;;4.53;2.47;;;;;;;;;;6210778;23;20247;-90
2021/03/05 14:57:41;;;;;;;4.77;2.27;;;;;;;;;;6230920;23;20199;-89
2021/03/05 15:00:46;;;;;;;4.77;2.20;;;;;;;;;;6219481;23;20188;-89
2021/03/05 15:03:52;;;;;;;3.90;2.40;;;;;;;;;;6215310;23;20218;-90
2021/03/05 15:06:57;;;;;;;8.27;2.60;;;;;;;;;;6212488;23;20201;-90
2021/03/05 15:10:02;;;;;;;4.73;2.20;;;;;;;;;;6212532;23;20250;-89
2021/03/05 15:13:07;;;;;;;5.93;2.37;;;;;;;;;;6212511;23;20618;-87
2021/03/05 15:16:12;;;;;;;6.30;2.30;;;;;;;;;;6215689;23;20191;-88
2021/03/05 15:19:18;;;;;;;4.13;2.17;;;;;;;;;;6210988;23;20224;-88
2021/03/05 15:22:23;;;;;;;4.53;2.10;;;;;;;;;;6211869;23;20238;-89
2021/03/05 15:25:27;;;;;;;4.47;2.20;;;;;;;;;;6211414;23;20266;-89
2021/03/05 15:28:32;;;;;;;6.73;3.17;;;;;;;;;;6212803;23;20191;-90
2021/03/05 15:31:37;;;;;;;5.13;2.83;;;;;;;;;;6210283;23;20175;-89
2021/03/05 15:34:43;;;;;;;3.83;2.17;;;;;;;;;;6210550;23;20171;-88
2021/03/05 15:37:47;;;;;;;5.50;2.73;;;;;;;;;;6211252;23;20155;-89
2021/03/05 15:40:53;;;;;;;13.53;2.60;;;;;;;;;;6209291;23;20172;-90
2021/03/05 15:43:57;;;;;;;7.07;2.60;;;;;;;;;;6208074;23;20171;-90
2021/03/05 15:47:03;;;;;;;4.13;2.50;;;;;;;;;;6208834;23;20509;-90
2021/03/05 15:50:09;;;;;;;5.27;2.60;;;;;;;;;;6209270;23;20226;-89
2021/03/05 15:53:14;;;;;;;5.87;2.50;;;;;;;;;;6208767;23;20170;-90
2021/03/05 15:56:19;;;;;;;5.00;2.90;;;;;;;;;;6210537;23;20236;-90
2021/03/05 15:59:24;;;;;;;5.13;2.70;;;;;;;;;;6211986;23;20175;-90
2021/03/05 16:02:29;;;;;;;6.83;3.07;;;;;;;;;;6215214;23;20575;-91
2021/03/05 16:05:35;;;;;;;6.70;3.03;;;;;;;;;;6215581;23;20194;-90
2021/03/05 16:08:41;;;;;;;9.23;3.20;;;;;;;;;;6199579;23;20195;-89
2021/03/05 16:11:45;;;;;;;5.50;3.07;;;;;;;;;;6213755;23;20175;-89
2021/03/05 16:14:54;;;;;;;6.73;3.50;;;;;;;;;;6216569;23;20163;-90
2021/03/05 16:17:58;;;;;;;6.90;3.40;;;;;;;;;;6206107;23;20315;-88
2021/03/05 16:21:06;;;;;;;8.63;4.27;;;;;;;;;;6203891;23;20159;-90
2021/03/05 16:24:11;;;;;;;4.33;2.83;;;;;;;;;;6203780;23;20172;-90
2021/03/05 16:27:15;;;;;;;7.37;3.67;;;;;;;;;;6203281;23;20187;-89
2021/03/05 16:30:21;;;;;;;8.80;4.30;;;;;;;;;;6205263;23;20179;-88
2021/03/05 16:33:26;;;;;;;11.80;6.20;;;;;;;;;;6202377;23;20216;-89
2021/03/05 16:36:31;;;;;;;11.37;5.70;;;;;;;;;;6202355;23;20220;-87
2021/03/05 16:39:36;;;;;;;9.17;5.10;;;;;;;;;;6202888;23;20221;-89
2021/03/05 16:42:41;;;;;;;8.50;4.13;;;;;;;;;;6201538;23;20171;-88
2021/03/05 16:45:45;;;;;;;10.13;4.27;;;;;;;;;;6202899;23;20319;-89
2021/03/05 16:48:50;;;;;;;8.27;3.63;;;;;;;;;;6201825;23;20215;-89
2021/03/05 16:52:00;;;;;;;9.43;4.17;;;;;;;;;;6201190;23;20172;-88
2021/03/05 16:55:05;;;;;;;8.90;4.40;;;;;;;;;;6201766;23;20232;-90
2021/03/05 16:58:10;;;;;;;8.03;4.33;;;;;;;;;;6201594;23;20191;-89
2021/03/05 17:01:15;;;;;;;14.37;5.30;;;;;;;;;;6203363;23;20171;-89
2021/03/05 17:04:20;;;;;;;11.03;5.10;;;;;;;;;;6205134;23;20208;-88
2021/03/05 17:07:27;;;;;;;9.33;4.50;;;;;;;;;;6203681;23;20195;-89
2021/03/05 17:10:32;;;;;;;9.33;4.47;;;;;;;;;;6202604;23;20249;-89
2021/03/05 17:13:37;;;;;;;8.23;4.40;;;;;;;;;;6202581;23;20229;-89
2021/03/05 17:16:42;;;;;;;7.10;4.07;;;;;;;;;;6208021;23;20628;-90
2021/03/05 17:19:47;;;;;;;9.53;4.50;;;;;;;;;;6215249;23;20168;-89
2021/03/05 17:22:52;;;;;;;9.93;5.20;;;;;;;;;;6214102;23;20213;-88
2021/03/05 17:25:57;;;;;;;11.00;4.70;;;;;;;;;;6216844;23;20183;-88
2021/03/05 17:29:02;;;;;;;8.80;4.50;;;;;;;;;;6215429;23;20175;-88
2021/03/05 23:36:10;;;;;;;13.83;5.83;;;;;;;;;;6145639;23;20449;-88
2021/03/05 23:39:15;;;;;;;18.63;5.50;;;;;;;;;;6180329;23;20195;-88
2021/03/05 23:42:20;;;;;;;15.77;5.83;;;;;;;;;;6195641;23;20203;-89
2021/03/05 23:45:25;;;;;;;14.30;5.50;;;;;;;;;;6194604;23;20219;-89
2021/03/05 23:48:30;;;;;;;13.07;6.03;;;;;;;;;;6196774;23;20239;-89
2021/03/05 23:51:36;;;;;;;12.13;5.70;;;;;;;;;;6196393;23;20199;-89
2021/03/05 23:54:41;;;;;;;16.00;5.53;;;;;;;;;;6198964;23;20253;-89
2021/03/05 23:57:46;;;;;;;11.00;5.30;;;;;;;;;;6196262;23;20171;-90
